createdAt,value
2022-08-19T00:02:16.183Z,15.28
2022-08-19T00:05:18.772Z,15.25
2022-08-19T00:08:20.850Z,15.17
2022-08-19T00:11:25.712Z,15.16
2022-08-19T00:14:28.719Z,15.03
2022-08-19T00:17:30.831Z,14.95
2022-08-19T00:20:32.916Z,14.95
2022-08-19T00:23:38.153Z,14.98
2022-08-19T00:26:40.576Z,14.99
2022-08-19T00:29:42.699Z,14.87
2022-08-19T00:32:44.886Z,14.77
2022-08-19T00:35:46.960Z,14.72
2022-08-19T00:38:58.288Z,14.88
2022-08-19T00:42:00.377Z,14.78
2022-08-19T00:45:02.560Z,14.59
2022-08-19T00:48:05.514Z,14.73
2022-08-19T00:51:17.143Z,14.39
2022-08-19T00:54:28.643Z,14.27
2022-08-19T00:57:41.423Z,14.27
2022-08-19T01:00:43.681Z,14.14
2022-08-19T01:03:57.783Z,14.21
2022-08-19T01:07:02.528Z,14.17
2022-08-19T01:10:06.115Z,14.40
2022-08-19T01:13:08.279Z,14.36
2022-08-19T01:16:12.872Z,14.20
2022-08-19T01:19:30.775Z,13.80
2022-08-19T01:22:54.866Z,13.91
2022-08-19T01:25:57.624Z,13.91
2022-08-19T01:29:02.156Z,13.81
2022-08-19T01:32:09.087Z,13.82
2022-08-19T01:35:32.480Z,13.45
2022-08-19T01:38:38.103Z,13.44
2022-08-19T01:41:47.737Z,13.62
2022-08-19T01:44:49.979Z,13.32
2022-08-19T01:48:01.635Z,13.23
2022-08-19T01:51:05.098Z,13.27
2022-08-19T01:54:08.952Z,13.53
2022-08-19T01:57:13.278Z,13.88
2022-08-19T02:00:16.876Z,14.13
2022-08-19T02:03:18.979Z,14.34
2022-08-19T02:06:21.236Z,14.36
2022-08-19T02:09:29.308Z,14.30
2022-08-19T02:12:31.443Z,14.20
2022-08-19T02:15:33.573Z,14.13
2022-08-19T02:18:35.654Z,14.24
2022-08-19T02:21:38.528Z,14.22
2022-08-19T02:24:40.608Z,14.13
2022-08-19T02:27:43.131Z,13.99
2022-08-19T02:30:45.335Z,13.93
2022-08-19T02:33:48.067Z,13.57
2022-08-19T02:36:51.779Z,13.73
2022-08-19T02:39:54.222Z,14.15
2022-08-19T02:42:56.618Z,14.31
2022-08-19T02:45:58.765Z,14.30
2022-08-19T02:49:03.656Z,14.35
2022-08-19T02:52:05.838Z,14.28
2022-08-19T02:55:08.779Z,14.29
2022-08-19T02:58:10.930Z,14.35
2022-08-19T03:01:25.001Z,14.30
2022-08-19T03:04:27.259Z,13.98
2022-08-19T03:07:29.334Z,13.66
2022-08-19T03:10:31.423Z,13.01
2022-08-19T03:13:33.821Z,13.22
2022-08-19T03:16:46.235Z,13.49
2022-08-19T03:19:48.319Z,13.60
2022-08-19T03:22:50.392Z,13.73
2022-08-19T03:25:59.215Z,13.79
2022-08-19T03:29:30.272Z,13.59
2022-08-19T03:32:33.396Z,13.27
2022-08-19T03:35:37.699Z,13.40
2022-08-19T03:38:44.443Z,13.41
2022-08-19T03:41:48.432Z,13.60
2022-08-19T03:44:50.759Z,13.56
2022-08-19T03:47:53.091Z,13.61
2022-08-19T03:50:56.292Z,13.67
2022-08-19T03:53:59.975Z,13.27
2022-08-19T03:57:02.122Z,13.56
2022-08-19T04:00:13.640Z,13.43
2022-08-19T04:03:16.514Z,13.40
2022-08-19T04:06:22.494Z,13.31
2022-08-19T04:09:24.787Z,13.23
2022-08-19T04:12:26.883Z,13.11
2022-08-19T04:15:32.266Z,13.20
2022-08-19T04:18:36.432Z,13.31
2022-08-19T04:21:38.660Z,13.28
2022-08-19T04:24:40.770Z,13.35
2022-08-19T04:27:47.283Z,13.29
2022-08-19T04:30:52.527Z,13.28
2022-08-19T04:34:00.426Z,13.14
2022-08-19T04:37:02.634Z,13.35
2022-08-19T04:40:25.302Z,13.25
2022-08-19T04:43:27.663Z,13.41
2022-08-19T04:46:40.213Z,13.46
2022-08-19T04:49:53.232Z,13.37
2022-08-19T04:52:56.853Z,13.31
2022-08-19T04:56:13.630Z,13.35
2022-08-19T04:59:16.965Z,13.41
2022-08-19T05:02:19.112Z,13.31
2022-08-19T05:05:21.838Z,12.87
2022-08-19T05:08:30.942Z,12.96
2022-08-19T05:11:36.122Z,13.19
2022-08-19T05:14:38.206Z,13.25
2022-08-19T05:18:00.222Z,13.46
2022-08-19T05:21:30.123Z,13.38
2022-08-19T05:24:35.190Z,13.15
2022-08-19T05:27:37.993Z,12.79
2022-08-19T05:30:47.133Z,12.74
2022-08-19T05:33:51.021Z,12.64
2022-08-19T05:36:57.989Z,12.54
2022-08-19T05:40:00.254Z,13.21
2022-08-19T05:43:03.083Z,13.29
2022-08-19T05:46:07.747Z,13.46
2022-08-19T05:49:09.916Z,13.21
2022-08-19T05:52:14.383Z,13.37
2022-08-19T05:55:21.358Z,13.33
2022-08-19T05:58:23.480Z,13.06
2022-08-19T06:01:30.309Z,13.13
2022-08-19T06:04:32.433Z,13.21
2022-08-19T06:10:37.935Z,13.29
2022-08-19T06:13:40.023Z,13.36
2022-08-19T06:16:42.884Z,13.21
2022-08-19T06:19:44.970Z,13.65
2022-08-19T06:22:50.137Z,13.70
2022-08-19T06:25:52.231Z,13.67
2022-08-19T06:28:54.304Z,13.99
2022-08-19T06:31:57.774Z,13.68
2022-08-19T06:34:59.849Z,14.08
2022-08-19T06:38:01.939Z,14.17
2022-08-19T06:41:07.266Z,14.43
2022-08-19T06:44:13.131Z,14.79
2022-08-19T06:47:23.758Z,14.74
2022-08-19T06:50:27.299Z,14.79
2022-08-19T06:53:30.468Z,14.84
2022-08-19T06:56:35.638Z,14.82
2022-08-19T06:59:37.871Z,15.29
2022-08-19T07:02:42.628Z,15.41
2022-08-19T07:05:46.330Z,15.72
2022-08-19T07:08:49.287Z,15.78
2022-08-19T07:11:53.469Z,15.66
2022-08-19T07:14:55.559Z,15.52
2022-08-19T07:17:57.658Z,15.17
2022-08-19T07:21:25.295Z,14.88
2022-08-19T07:24:33.683Z,14.53
2022-08-19T07:27:36.070Z,14.71
2022-08-19T07:30:38.951Z,15.10
2022-08-19T07:33:41.991Z,14.89
2022-08-19T07:36:45.756Z,15.08
2022-08-19T07:39:47.908Z,15.47
2022-08-19T07:42:50.035Z,15.30
2022-08-19T07:45:58.189Z,15.55
2022-08-19T07:49:01.438Z,15.63
2022-08-19T07:52:07.842Z,15.58
2022-08-19T07:55:40.284Z,15.55
2022-08-19T07:58:36.274Z,15.54
2022-08-19T08:01:41.485Z,15.54
2022-08-19T08:05:02.820Z,15.83
2022-08-19T08:08:23.830Z,16.20
2022-08-19T08:11:29.893Z,15.79
2022-08-19T08:14:36.283Z,15.97
2022-08-19T08:17:49.781Z,15.69
2022-08-19T08:20:53.859Z,15.54
2022-08-19T08:23:56.745Z,15.72
2022-08-19T08:27:00.062Z,15.64
2022-08-19T08:30:03.002Z,16.27
2022-08-19T08:33:05.736Z,16.66
2022-08-19T08:36:09.004Z,16.24
2022-08-19T08:39:11.503Z,16.23
2022-08-19T08:42:24.291Z,16.17
2022-08-19T08:45:26.604Z,16.25
2022-08-19T08:48:59.268Z,16.73
2022-08-19T08:52:10.918Z,16.15
2022-08-19T08:55:36.840Z,16.55
2022-08-19T08:58:59.582Z,16.54
2022-08-19T09:02:02.178Z,17.12
2022-08-19T09:05:05.101Z,16.79
2022-08-19T09:08:14.904Z,16.90
2022-08-19T09:11:44.488Z,17.50
2022-08-19T09:14:52.500Z,17.26
2022-08-19T09:17:54.802Z,16.95
2022-08-19T09:20:57.791Z,17.95
2022-08-19T09:24:00.209Z,17.80
2022-08-19T09:27:06.691Z,17.94
2022-08-19T09:30:24.816Z,17.81
2022-08-19T09:33:27.069Z,17.22
2022-08-19T09:36:34.670Z,16.91
2022-08-19T09:39:37.309Z,16.84
2022-08-19T09:42:50.334Z,17.19
2022-08-19T09:45:54.868Z,16.76
2022-08-19T09:49:02.947Z,17.44
2022-08-19T09:52:13.537Z,16.96
2022-08-19T09:55:17.043Z,17.18
2022-08-19T09:58:24.663Z,17.62
2022-08-19T10:01:30.340Z,17.26
2022-08-19T10:04:50.972Z,17.00
2022-08-19T10:07:53.178Z,17.78
2022-08-19T10:10:56.050Z,18.34
2022-08-19T10:13:58.196Z,18.51
2022-08-19T10:17:01.367Z,17.77
2022-08-19T10:20:19.748Z,19.29
2022-08-19T10:23:22.462Z,19.22
2022-08-19T10:26:28.648Z,19.81
2022-08-19T10:29:33.543Z,19.77
2022-08-19T10:32:35.659Z,18.72
2022-08-19T10:35:42.716Z,18.17
2022-08-19T10:39:01.643Z,18.84
2022-08-19T10:42:08.035Z,18.58
2022-08-19T10:45:11.265Z,18.24
2022-08-19T10:48:15.643Z,18.08
2022-08-19T10:51:47.873Z,18.02
2022-08-19T10:55:09.229Z,18.88
2022-08-19T10:58:23.489Z,19.24
2022-08-19T11:01:27.676Z,18.60
2022-08-19T11:04:29.831Z,18.62
2022-08-19T11:07:31.998Z,18.05
2022-08-19T11:10:34.078Z,18.46
2022-08-19T11:13:39.176Z,17.94
2022-08-19T11:16:42.299Z,18.15
2022-08-19T11:19:44.411Z,18.78
2022-08-19T11:22:46.643Z,18.29
2022-08-19T11:25:51.041Z,18.46
2022-08-19T11:28:55.379Z,18.21
2022-08-19T11:31:57.530Z,18.75
2022-08-19T11:34:59.615Z,19.79
2022-08-19T11:38:02.405Z,18.79
2022-08-19T11:41:06.883Z,18.16
2022-08-19T11:44:09.063Z,18.68
2022-08-19T11:47:11.131Z,18.74
2022-08-19T11:50:13.244Z,18.60
2022-08-19T11:53:15.327Z,19.53
2022-08-19T11:56:17.747Z,19.35
2022-08-19T11:59:19.840Z,19.04
2022-08-19T12:02:22.702Z,19.84
2022-08-19T12:05:24.833Z,20.02
2022-08-19T12:08:27.030Z,19.94
2022-08-19T12:11:29.336Z,20.36
2022-08-19T12:14:36.779Z,20.61
2022-08-19T12:17:38.964Z,20.15
2022-08-19T12:20:42.167Z,21.66
2022-08-19T12:23:45.983Z,20.02
2022-08-19T12:26:52.465Z,19.60
2022-08-19T12:29:55.645Z,19.71
2022-08-19T12:32:58.253Z,19.42
2022-08-19T12:36:06.273Z,20.35
2022-08-19T12:39:10.694Z,20.75
2022-08-19T12:42:14.908Z,20.11
2022-08-19T12:45:17.096Z,21.06
2022-08-19T12:48:33.368Z,20.37
2022-08-19T12:51:36.854Z,21.25
2022-08-19T12:54:38.944Z,20.77
2022-08-19T12:57:41.238Z,20.93
2022-08-19T13:00:43.366Z,21.47
2022-08-19T13:03:48.490Z,21.00
2022-08-19T13:06:52.810Z,20.34
2022-08-19T13:09:54.899Z,20.87
2022-08-19T13:12:57.747Z,20.76
2022-08-19T13:16:04.111Z,21.67
2022-08-19T13:19:06.280Z,20.79
2022-08-19T13:22:13.234Z,21.01
2022-08-19T13:25:18.604Z,19.67
2022-08-19T13:28:20.677Z,19.74
2022-08-19T13:31:52.896Z,19.30
2022-08-19T13:34:54.970Z,18.96
2022-08-19T13:37:57.114Z,19.99
2022-08-19T13:41:09.960Z,19.94
2022-08-19T13:44:14.881Z,19.67
2022-08-19T13:47:17.372Z,19.87
2022-08-19T13:50:22.700Z,19.74
2022-08-19T13:53:25.587Z,19.27
2022-08-19T13:56:27.722Z,20.04
2022-08-19T13:59:29.831Z,19.28
2022-08-19T14:02:31.949Z,19.21
2022-08-19T14:05:34.082Z,19.11
2022-08-19T14:08:44.213Z,19.46
2022-08-19T14:11:48.071Z,21.58
2022-08-19T14:14:50.367Z,20.84
2022-08-19T14:17:52.652Z,21.32
2022-08-19T14:20:56.479Z,21.20
2022-08-19T14:23:59.122Z,21.64
2022-08-19T14:27:01.451Z,23.58
2022-08-19T14:30:08.756Z,24.13
2022-08-19T14:33:10.898Z,21.54
2022-08-19T14:36:13.005Z,19.90
2022-08-19T14:39:15.113Z,19.36
2022-08-19T14:42:17.264Z,19.65
2022-08-19T14:45:19.599Z,19.57
2022-08-19T14:48:22.550Z,18.72
2022-08-19T14:51:31.438Z,18.80
2022-08-19T14:54:33.551Z,19.00
2022-08-19T14:57:35.669Z,20.30
2022-08-19T15:00:37.825Z,19.96
2022-08-19T15:03:41.414Z,19.75
2022-08-19T15:06:43.530Z,21.58
2022-08-19T15:09:45.626Z,21.31
2022-08-19T15:12:51.720Z,19.51
2022-08-19T15:15:54.708Z,19.27
2022-08-19T15:18:57.998Z,18.86
2022-08-19T15:22:00.208Z,18.63
2022-08-19T15:25:02.803Z,18.17
2022-08-19T15:28:04.944Z,18.30
2022-08-19T15:31:07.092Z,20.14
2022-08-19T15:34:09.275Z,19.03
2022-08-19T15:37:11.374Z,18.01
2022-08-19T15:40:13.583Z,18.30
2022-08-19T15:43:17.045Z,17.76
2022-08-19T15:46:21.972Z,17.90
2022-08-19T15:49:24.073Z,17.65
2022-08-19T15:52:27.256Z,17.41
2022-08-19T15:55:34.680Z,17.23
2022-08-19T15:58:55.991Z,17.91
2022-08-19T16:02:16.827Z,18.07
2022-08-19T16:05:43.327Z,18.94
2022-08-19T16:08:48.851Z,18.47
2022-08-19T16:11:56.906Z,19.01
2022-08-19T16:15:01.879Z,18.48
2022-08-19T16:18:04.688Z,18.49
2022-08-19T16:21:08.129Z,18.07
2022-08-19T16:24:13.078Z,17.95
2022-08-19T16:27:16.095Z,17.73
2022-08-19T16:30:18.377Z,17.78
2022-08-19T16:33:22.793Z,17.70
2022-08-19T16:36:25.550Z,17.92
2022-08-19T16:39:28.320Z,19.44
2022-08-19T16:42:30.458Z,18.86
2022-08-19T16:45:32.588Z,20.00
2022-08-19T16:48:35.014Z,21.15
2022-08-19T16:51:38.455Z,22.89
2022-08-19T16:54:40.649Z,22.57
2022-08-19T16:57:45.486Z,21.67
2022-08-19T17:00:48.688Z,21.58
2022-08-19T17:03:52.694Z,22.50
2022-08-19T17:06:54.824Z,22.49
2022-08-19T17:09:57.148Z,22.56
2022-08-19T17:13:00.040Z,22.01
2022-08-19T17:16:02.391Z,21.91
2022-08-19T17:19:06.911Z,19.42
2022-08-19T17:22:11.390Z,19.17
2022-08-19T17:25:13.701Z,18.27
2022-08-19T17:28:19.018Z,17.76
2022-08-19T17:31:23.694Z,18.53
2022-08-19T17:34:25.844Z,17.86
2022-08-19T17:37:28.279Z,18.61
2022-08-19T17:40:30.655Z,19.80
2022-08-19T17:43:37.053Z,20.04
2022-08-19T17:46:41.080Z,20.06
2022-08-19T17:49:43.179Z,19.93
2022-08-19T17:52:45.251Z,19.45
2022-08-19T17:55:48.123Z,19.23
2022-08-19T17:58:57.614Z,19.19
2022-08-19T18:02:02.418Z,17.26
2022-08-19T18:05:06.146Z,17.64
2022-08-19T18:08:09.562Z,18.77
2022-08-19T18:11:11.728Z,19.69
2022-08-19T18:14:14.107Z,18.55
2022-08-19T18:17:18.079Z,19.12
2022-08-19T18:20:20.350Z,18.36
2022-08-19T18:23:41.334Z,18.40
2022-08-19T18:26:45.198Z,17.85
2022-08-19T18:29:47.326Z,17.70
2022-08-19T18:32:52.680Z,17.55
2022-08-19T18:35:54.759Z,16.80
2022-08-19T18:39:15.411Z,17.32
2022-08-19T18:42:37.175Z,16.37
2022-08-19T18:45:58.575Z,15.89
2022-08-19T18:49:06.836Z,15.77
2022-08-19T18:52:09.044Z,15.94
2022-08-19T18:55:11.699Z,15.94
2022-08-19T18:58:13.895Z,15.96
2022-08-19T19:01:22.157Z,15.95
2022-08-19T19:04:28.043Z,15.93
2022-08-19T19:07:30.133Z,15.84
2022-08-19T19:10:32.232Z,15.78
2022-08-19T19:13:35.150Z,15.84
2022-08-19T19:16:41.913Z,15.70
2022-08-19T19:19:45.785Z,15.74
2022-08-19T19:22:47.990Z,15.78
2022-08-19T19:25:51.387Z,16.03
2022-08-19T19:28:54.898Z,15.80
2022-08-19T19:32:07.031Z,16.03
2022-08-19T19:35:10.707Z,15.94
2022-08-19T19:38:12.828Z,15.74
2022-08-19T19:41:16.263Z,15.64
2022-08-19T19:44:30.875Z,15.93
2022-08-19T19:47:34.695Z,15.69
2022-08-19T19:50:36.959Z,15.58
2022-08-19T19:53:39.300Z,15.65
2022-08-19T19:56:45.004Z,15.64
2022-08-19T19:59:51.433Z,15.49
2022-08-19T20:02:55.921Z,15.54
2022-08-19T20:05:59.303Z,15.41
2022-08-19T20:09:10.888Z,15.80
2022-08-19T20:12:13.022Z,15.71
2022-08-19T20:15:15.171Z,15.75
2022-08-19T20:18:17.330Z,15.44
2022-08-19T20:21:19.491Z,15.66
2022-08-19T20:24:27.562Z,15.89
2022-08-19T20:27:31.204Z,15.73
2022-08-19T20:30:39.560Z,15.74
2022-08-19T20:33:48.686Z,15.58
2022-08-19T20:36:50.853Z,15.43
2022-08-19T20:39:53.115Z,15.55
2022-08-19T20:42:55.589Z,15.46
2022-08-19T20:45:57.707Z,15.49
2022-08-19T20:49:00.123Z,15.17
2022-08-19T20:52:03.813Z,15.22
2022-08-19T20:55:06.527Z,14.85
2022-08-19T20:58:10.097Z,14.81
2022-08-19T21:01:13.678Z,14.74
2022-08-19T21:04:17.574Z,14.55
2022-08-19T21:07:19.725Z,14.59
2022-08-19T21:10:21.829Z,14.54
2022-08-19T21:13:24.123Z,14.55
2022-08-19T21:16:26.523Z,14.71
2022-08-19T21:19:28.814Z,14.83
2022-08-19T21:22:31.207Z,14.79
2022-08-19T21:25:33.571Z,14.86
2022-08-19T21:28:36.697Z,14.76
2022-08-19T21:31:38.972Z,14.82
2022-08-19T21:34:43.819Z,14.96
2022-08-19T21:37:48.622Z,15.14
2022-08-19T21:40:51.299Z,14.78
2022-08-19T21:43:53.962Z,14.69
2022-08-19T21:46:56.250Z,14.65
2022-08-19T21:49:58.392Z,14.55
2022-08-19T21:53:01.166Z,14.38
2022-08-19T21:56:06.810Z,14.42
2022-08-19T21:59:08.932Z,14.48
2022-08-19T22:02:20.994Z,14.46
2022-08-19T22:05:24.655Z,14.47
2022-08-19T22:08:27.307Z,14.41
2022-08-19T22:11:30.016Z,14.31
2022-08-19T22:14:33.699Z,14.41
2022-08-19T22:17:36.555Z,14.24
2022-08-19T22:20:38.799Z,14.42
2022-08-19T22:23:42.111Z,14.48
2022-08-19T22:26:44.190Z,14.54
2022-08-19T22:29:46.319Z,14.49
2022-08-19T22:32:56.165Z,14.73
2022-08-19T22:35:58.795Z,14.31
2022-08-19T22:39:00.899Z,14.18
2022-08-19T22:42:03.036Z,14.08
2022-08-19T22:45:10.368Z,13.95
2022-08-19T22:48:14.171Z,14.08
2022-08-19T22:51:35.221Z,14.30
2022-08-19T22:54:37.300Z,14.52
2022-08-19T22:57:40.018Z,14.46
2022-08-19T23:00:42.180Z,14.37
2022-08-19T23:03:44.294Z,14.37
2022-08-19T23:06:46.417Z,14.47
2022-08-19T23:09:48.590Z,14.79
2022-08-19T23:12:50.774Z,14.59
2022-08-19T23:15:53.766Z,14.31
2022-08-19T23:18:56.142Z,14.30
2022-08-19T23:21:58.765Z,14.11
2022-08-19T23:25:10.268Z,13.89
2022-08-19T23:28:31.107Z,13.83
2022-08-19T23:31:33.240Z,13.89
2022-08-19T23:34:35.369Z,14.23
2022-08-19T23:37:37.684Z,14.39
2022-08-19T23:40:39.958Z,14.51
2022-08-19T23:43:42.117Z,14.22
2022-08-19T23:46:55.174Z,14.10
2022-08-19T23:49:58.143Z,14.11
2022-08-19T23:53:00.446Z,13.99
2022-08-19T23:56:02.581Z,14.00
2022-08-19T23:59:05.474Z,13.96
